Time;durP1;ratioP1;P1;durP2;ratioP2;P2;SDS_P1;SDS_P2;PMS_P1;PMS_P2;Temp;Humidity;BMP_temperature;BMP_pressure;BME280_temperature;BME280_humidity;BME280_pressure;Samples;Min_cycle;Max_cycle;Signal;HPM_P1;HPM_P2
2023/01/04 00:01:44;;;;;;;116.47;63.73;;;;;;;;;;4403847;32;319208;-79
2023/01/04 00:04:13;;;;;;;111.80;65.70;;;;;;;;;;4412636;32;319533;-78
2023/01/04 00:06:40;;;;;;;110.27;64.40;;;;;;;;;;4401840;32;319414;-80
2023/01/04 00:09:07;;;;;;;116.00;66.43;;;;;;;;;;4409084;32;319555;-79
2023/01/04 00:11:33;;;;;;;119.80;69.30;;;;;;;;;;4403338;32;324004;-78
2023/01/04 00:14:00;;;;;;;121.27;70.57;;;;;;;;;;4413199;32;319187;-80
2023/01/04 00:16:28;;;;;;;123.63;69.67;;;;;;;;;;4403392;32;319581;-80
2023/01/04 00:18:56;;;;;;;112.60;67.10;;;;;;;;;;4411996;32;319610;-84
2023/01/04 00:21:26;;;;;;;125.33;72.63;;;;;;;;;;4403288;32;319327;-78
2023/01/04 00:23:55;;;;;;;132.73;68.90;;;;;;;;;;4412680;32;318736;-78
2023/01/04 00:26:23;;;;;;;121.30;72.37;;;;;;;;;;4403638;32;319404;-81
2023/01/04 00:28:54;;;;;;;115.23;69.43;;;;;;;;;;4408819;32;318675;-80
2023/01/04 00:31:22;;;;;;;119.00;68.70;;;;;;;;;;4407787;32;356352;-78
2023/01/04 00:33:48;;;;;;;110.67;68.40;;;;;;;;;;4413390;32;319515;-80
2023/01/04 00:36:15;;;;;;;109.73;69.33;;;;;;;;;;4412864;32;319829;-79
2023/01/04 00:38:44;;;;;;;118.37;70.17;;;;;;;;;;4403004;32;319634;-81
2023/01/04 00:41:12;;;;;;;114.90;67.03;;;;;;;;;;4412534;32;319382;-78
2023/01/04 00:43:39;;;;;;;117.03;67.07;;;;;;;;;;4401720;32;329324;-82
2023/01/04 00:46:10;;;;;;;115.47;69.50;;;;;;;;;;4411485;32;320308;-81
2023/01/04 00:48:40;;;;;;;107.83;67.63;;;;;;;;;;4402758;32;344300;-78
2023/01/04 00:51:07;;;;;;;131.27;70.20;;;;;;;;;;4413199;32;318743;-80
2023/01/04 00:53:34;;;;;;;109.23;65.73;;;;;;;;;;4400616;32;319328;-79
2023/01/04 00:56:02;;;;;;;106.40;67.10;;;;;;;;;;4411382;32;318903;-81
2023/01/04 00:58:29;;;;;;;105.13;61.23;;;;;;;;;;4401987;32;319986;-81
2023/01/04 01:00:55;;;;;;;93.33;58.00;;;;;;;;;;4411409;32;319277;-83
2023/01/04 01:03:22;;;;;;;93.40;57.30;;;;;;;;;;4403259;32;318481;-80
2023/01/04 01:05:49;;;;;;;98.63;56.67;;;;;;;;;;4413068;32;318809;-80
2023/01/04 01:08:25;;;;;;;117.37;65.37;;;;;;;;;;4397369;32;317531;-79
2023/01/04 01:10:52;;;;;;;121.97;67.20;;;;;;;;;;4389180;32;418877;-77
2023/01/04 01:13:24;;;;;;;168.97;89.13;;;;;;;;;;4407589;32;318776;-81
2023/01/04 01:15:50;;;;;;;228.80;123.33;;;;;;;;;;4412442;32;318798;-79
2023/01/04 01:18:17;;;;;;;327.27;170.63;;;;;;;;;;4414742;32;320627;-79
2023/01/04 01:20:45;;;;;;;347.23;190.83;;;;;;;;;;4401817;32;420854;-77
2023/01/04 01:23:13;;;;;;;365.47;186.70;;;;;;;;;;4413808;32;346081;-81
2023/01/04 01:25:40;;;;;;;356.37;185.30;;;;;;;;;;4404742;32;320570;-77
2023/01/04 01:28:08;;;;;;;338.03;181.90;;;;;;;;;;4411844;32;319679;-81
2023/01/04 01:30:42;;;;;;;371.50;198.47;;;;;;;;;;4412073;32;320232;-80
2023/01/04 01:33:09;;;;;;;363.37;196.40;;;;;;;;;;4415983;32;319940;-81
2023/01/04 01:35:38;;;;;;;381.77;203.00;;;;;;;;;;4406222;32;320355;-77
2023/01/04 01:38:04;;;;;;;355.70;192.17;;;;;;;;;;4415889;32;320717;-79
2023/01/04 01:40:31;;;;;;;380.53;206.03;;;;;;;;;;4410119;32;320431;-76
2023/01/04 01:42:58;;;;;;;479.30;277.30;;;;;;;;;;4421516;32;320646;-78
2023/01/04 01:45:29;;;;;;;480.10;282.67;;;;;;;;;;4413093;32;319952;-77
2023/01/04 01:48:03;;;;;;;519.37;307.60;;;;;;;;;;4431185;32;319438;-78
2023/01/04 01:50:33;;;;;;;528.47;313.73;;;;;;;;;;4415085;32;320704;-78
2023/01/04 01:53:01;;;;;;;537.00;300.87;;;;;;;;;;4414426;32;320385;-80
2023/01/04 01:55:30;;;;;;;525.87;299.17;;;;;;;;;;4405391;32;320805;-78
2023/01/04 01:57:58;;;;;;;516.87;294.33;;;;;;;;;;4411716;32;319784;-77
2023/01/04 02:00:25;;;;;;;522.93;286.87;;;;;;;;;;4403640;32;320906;-78
2023/01/04 02:03:07;;;;;;;496.00;284.47;;;;;;;;;;4414323;32;320350;-77
2023/01/04 02:05:35;;;;;;;503.83;291.33;;;;;;;;;;4404392;32;320579;-78
2023/01/04 02:08:05;;;;;;;499.63;289.90;;;;;;;;;;4413797;32;319669;-80
2023/01/04 02:10:32;;;;;;;465.10;261.37;;;;;;;;;;4403979;32;320443;-79
2023/01/04 02:13:01;;;;;;;443.43;242.13;;;;;;;;;;4413948;32;320235;-77
2023/01/04 02:15:31;;;;;;;431.37;234.57;;;;;;;;;;4404767;32;320265;-78
2023/01/04 02:18:08;;;;;;;409.27;219.27;;;;;;;;;;4415317;32;320923;-79
2023/01/04 02:20:48;;;;;;;434.87;245.73;;;;;;;;;;4404886;32;320632;-79
2023/01/04 02:23:48;;;;;;;411.83;234.73;;;;;;;;;;4414923;32;320592;-80
2023/01/04 02:27:06;;;;;;;426.97;230.53;;;;;;;;;;4410889;32;422090;-79
2023/01/04 02:30:11;;;;;;;406.03;216.37;;;;;;;;;;4399746;32;420136;-78
2023/01/04 02:32:53;;;;;;;393.57;213.07;;;;;;;;;;4402096;32;342774;-81
2023/01/04 02:35:29;;;;;;;418.30;225.90;;;;;;;;;;4408175;32;320660;-81
2023/01/04 02:38:03;;;;;;;415.73;230.33;;;;;;;;;;4400505;32;320019;-78
2023/01/04 02:40:40;;;;;;;416.80;227.17;;;;;;;;;;4390709;32;320317;-80
2023/01/04 02:46:05;;;;;;;340.27;189.27;;;;;;;;;;4401343;32;392765;-78
2023/01/04 02:51:29;;;;;;;291.00;159.17;;;;;;;;;;4402840;32;320497;-79
2023/01/04 02:54:00;;;;;;;342.83;182.20;;;;;;;;;;4414392;32;321064;-80
2023/01/04 02:56:37;;;;;;;330.67;180.17;;;;;;;;;;4404681;32;320927;-79
2023/01/04 02:59:22;;;;;;;331.23;174.67;;;;;;;;;;4413968;32;320219;-78
2023/01/04 03:07:46;;;;;;;314.83;164.57;;;;;;;;;;4396861;32;324865;-82
2023/01/04 03:10:21;;;;;;;268.70;143.40;;;;;;;;;;4398429;32;320300;-78
2023/01/04 03:12:52;;;;;;;236.33;129.27;;;;;;;;;;4385888;32;420671;-78
2023/01/04 03:15:23;;;;;;;216.37;120.83;;;;;;;;;;4398598;32;320700;-80
2023/01/04 03:17:54;;;;;;;182.57;108.80;;;;;;;;;;4385937;32;422279;-81
2023/01/04 03:20:29;;;;;;;208.93;119.17;;;;;;;;;;4388134;32;320206;-80
2023/01/04 03:37:05;;;;;;;221.67;121.23;;;;;;;;;;4400486;32;390867;-78
2023/01/04 03:48:30;;;;;;;159.43;90.97;;;;;;;;;;4410674;32;319538;-78
2023/01/04 03:51:03;;;;;;;143.60;83.80;;;;;;;;;;4404573;32;419593;-81
2023/01/04 03:53:34;;;;;;;122.53;68.30;;;;;;;;;;4401966;32;343695;-80
2023/01/04 03:56:02;;;;;;;128.63;72.00;;;;;;;;;;4413579;32;319358;-81
2023/01/04 03:58:29;;;;;;;144.13;76.33;;;;;;;;;;4403582;32;318731;-78
2023/01/04 04:01:02;;;;;;;124.90;71.07;;;;;;;;;;4411724;32;318571;-81
2023/01/04 04:08:59;;;;;;;103.77;57.53;;;;;;;;;;4403472;32;389944;-82
2023/01/04 04:11:32;;;;;;;96.63;53.17;;;;;;;;;;4404171;32;319429;-80
2023/01/04 04:13:59;;;;;;;95.00;52.10;;;;;;;;;;4413017;32;317688;-80
2023/01/04 04:16:28;;;;;;;128.50;62.50;;;;;;;;;;4402137;32;318147;-79
2023/01/04 04:18:55;;;;;;;116.47;62.63;;;;;;;;;;4412557;32;319399;-81
2023/01/04 04:21:22;;;;;;;139.80;71.07;;;;;;;;;;4402548;32;319699;-81
2023/01/04 04:23:49;;;;;;;152.40;80.27;;;;;;;;;;4412392;32;346249;-80
2023/01/04 04:26:17;;;;;;;139.63;75.27;;;;;;;;;;4413180;32;319123;-78
2023/01/04 04:28:44;;;;;;;148.00;78.47;;;;;;;;;;4398812;32;419994;-79
2023/01/04 04:31:11;;;;;;;163.13;84.20;;;;;;;;;;4412058;32;319106;-81
2023/01/04 04:33:38;;;;;;;188.40;91.47;;;;;;;;;;4401955;32;319513;-80
2023/01/04 04:36:07;;;;;;;210.70;100.60;;;;;;;;;;4408852;32;318886;-80
2023/01/04 04:38:34;;;;;;;189.57;92.37;;;;;;;;;;4386752;32;320547;-80
2023/01/04 04:43:52;;;;;;;178.13;91.17;;;;;;;;;;4399261;32;389232;-78
2023/01/04 04:46:19;;;;;;;166.60;88.30;;;;;;;;;;4401421;32;318811;-81
2023/01/04 04:48:46;;;;;;;173.23;88.20;;;;;;;;;;4417574;32;319044;-78
2023/01/04 04:51:13;;;;;;;160.73;86.53;;;;;;;;;;4412999;32;319345;-77
2023/01/04 04:53:40;;;;;;;165.53;85.10;;;;;;;;;;4402986;32;319280;-78
2023/01/04 04:56:08;;;;;;;165.50;85.40;;;;;;;;;;4412974;32;319636;-81
2023/01/04 04:58:35;;;;;;;147.90;82.07;;;;;;;;;;4402025;32;335238;-81
2023/01/04 05:01:04;;;;;;;167.07;87.43;;;;;;;;;;4408679;32;319609;-77
2023/01/04 05:03:31;;;;;;;188.73;100.90;;;;;;;;;;4410135;32;319526;-80
2023/01/04 05:05:58;;;;;;;192.80;99.37;;;;;;;;;;4412232;32;320676;-78
2023/01/04 05:08:24;;;;;;;187.90;99.07;;;;;;;;;;4387545;32;319849;-77
2023/01/04 05:10:54;;;;;;;204.67;100.77;;;;;;;;;;4397539;32;319552;-77
2023/01/04 05:13:20;;;;;;;212.93;108.40;;;;;;;;;;4384611;32;320295;-78
2023/01/04 05:15:48;;;;;;;215.27;103.80;;;;;;;;;;4396709;32;342360;-79
2023/01/04 05:18:19;;;;;;;208.37;98.00;;;;;;;;;;4396411;32;320479;-78
2023/01/04 05:20:46;;;;;;;221.57;99.57;;;;;;;;;;4384478;32;418290;-80
2023/01/04 05:23:15;;;;;;;198.50;99.30;;;;;;;;;;4396466;32;318544;-77
2023/01/04 05:25:43;;;;;;;175.90;79.20;;;;;;;;;;4387849;32;319564;-80
2023/01/04 05:28:10;;;;;;;154.60;80.27;;;;;;;;;;4396908;32;334064;-77
2023/01/04 05:30:52;;;;;;;180.77;90.83;;;;;;;;;;4387128;32;318739;-79
2023/01/04 05:33:23;;;;;;;174.17;85.67;;;;;;;;;;4399595;32;319476;-77
2023/01/04 05:35:50;;;;;;;158.43;81.70;;;;;;;;;;4389615;32;418192;-78
2023/01/04 05:38:18;;;;;;;134.43;68.97;;;;;;;;;;4407111;32;318942;-78
2023/01/04 05:40:45;;;;;;;132.73;66.07;;;;;;;;;;4399231;32;319008;-79
2023/01/04 05:43:13;;;;;;;108.83;59.70;;;;;;;;;;4425708;32;318966;-78
2023/01/04 05:45:40;;;;;;;109.60;54.70;;;;;;;;;;4410730;32;319368;-79
2023/01/04 05:48:07;;;;;;;104.37;56.80;;;;;;;;;;4413446;32;319191;-77
2023/01/04 05:50:38;;;;;;;130.20;62.57;;;;;;;;;;4403169;32;319532;-78
2023/01/04 05:53:05;;;;;;;120.87;62.90;;;;;;;;;;4413209;32;319383;-79
2023/01/04 05:55:32;;;;;;;142.33;68.03;;;;;;;;;;4403049;32;319108;-81
2023/01/04 05:57:59;;;;;;;137.03;69.67;;;;;;;;;;4412109;32;319121;-78
2023/01/04 06:00:28;;;;;;;174.03;82.40;;;;;;;;;;4402748;32;319263;-79
2023/01/04 06:02:55;;;;;;;192.57;90.70;;;;;;;;;;4411228;32;319693;-79
2023/01/04 06:05:22;;;;;;;215.97;96.53;;;;;;;;;;4402070;32;318770;-79
2023/01/04 06:07:51;;;;;;;229.80;97.67;;;;;;;;;;4413565;32;319251;-79
2023/01/04 06:10:20;;;;;;;234.27;103.00;;;;;;;;;;4415141;32;319368;-77
2023/01/04 06:12:47;;;;;;;222.33;99.33;;;;;;;;;;4401097;32;421159;-80
2023/01/04 06:15:14;;;;;;;234.60;102.37;;;;;;;;;;4410802;32;319255;-80
2023/01/04 06:17:41;;;;;;;291.00;138.50;;;;;;;;;;4402511;32;334032;-81
2023/01/04 06:20:10;;;;;;;273.40;116.00;;;;;;;;;;4413111;32;320581;-79
2023/01/04 06:22:39;;;;;;;236.07;111.07;;;;;;;;;;4404303;32;320296;-82
2023/01/04 06:25:09;;;;;;;245.07;114.10;;;;;;;;;;4414292;32;320506;-79
2023/01/04 06:27:39;;;;;;;215.63;104.87;;;;;;;;;;4403453;32;319845;-78
2023/01/04 06:30:07;;;;;;;214.27;102.67;;;;;;;;;;4414575;32;320236;-80
2023/01/04 06:32:33;;;;;;;233.50;120.57;;;;;;;;;;4404667;32;320506;-78
2023/01/04 06:35:00;;;;;;;241.87;119.17;;;;;;;;;;4413464;32;320312;-77
2023/01/04 06:37:29;;;;;;;231.60;115.20;;;;;;;;;;4392508;32;328072;-77
2023/01/04 06:39:56;;;;;;;252.30;112.87;;;;;;;;;;4398077;32;320596;-81
2023/01/04 06:45:10;;;;;;;260.97;119.30;;;;;;;;;;4410784;32;320426;-77
2023/01/04 06:47:38;;;;;;;256.67;114.70;;;;;;;;;;4402580;32;319526;-78
2023/01/04 06:50:05;;;;;;;283.43;121.57;;;;;;;;;;4397496;32;320086;-80
2023/01/04 06:52:33;;;;;;;259.83;115.33;;;;;;;;;;4389178;32;320273;-81
2023/01/04 06:54:59;;;;;;;286.27;127.27;;;;;;;;;;4398501;32;319793;-78
2023/01/04 06:57:28;;;;;;;286.90;126.27;;;;;;;;;;4387475;32;320226;-81
2023/01/04 06:59:54;;;;;;;281.50;126.97;;;;;;;;;;4398343;32;319767;-79
2023/01/04 07:02:21;;;;;;;292.93;138.07;;;;;;;;;;4387653;32;320541;-80
2023/01/04 07:04:48;;;;;;;287.93;137.17;;;;;;;;;;4398575;32;319761;-78
2023/01/04 07:07:17;;;;;;;496.00;202.07;;;;;;;;;;4406372;32;319923;-82
2023/01/04 07:09:44;;;;;;;310.63;144.77;;;;;;;;;;4403759;32;320663;-82
2023/01/04 07:12:11;;;;;;;279.60;132.50;;;;;;;;;;4414282;32;320411;-81
2023/01/04 07:14:39;;;;;;;275.23;130.23;;;;;;;;;;4395432;32;320363;-82
2023/01/04 07:17:06;;;;;;;262.17;119.73;;;;;;;;;;4398338;32;320852;-82
2023/01/04 07:19:33;;;;;;;279.27;120.83;;;;;;;;;;4385775;32;320590;-79
2023/01/04 07:22:00;;;;;;;243.60;113.37;;;;;;;;;;4396529;32;319475;-78
2023/01/04 07:24:28;;;;;;;229.90;115.07;;;;;;;;;;4386808;32;320429;-81
2023/01/04 07:26:55;;;;;;;259.90;120.37;;;;;;;;;;4398247;32;319630;-82
2023/01/04 07:29:23;;;;;;;250.27;124.80;;;;;;;;;;4387004;32;320402;-78
2023/01/04 07:31:52;;;;;;;257.67;125.93;;;;;;;;;;4398285;32;320402;-79
2023/01/04 07:34:24;;;;;;;276.40;132.00;;;;;;;;;;4398229;32;320385;-78
2023/01/04 07:36:51;;;;;;;269.57;131.90;;;;;;;;;;4385189;32;420990;-78
2023/01/04 07:39:18;;;;;;;255.67;126.73;;;;;;;;;;4397664;32;320430;-78
2023/01/04 07:41:46;;;;;;;253.53;126.63;;;;;;;;;;4394042;32;419670;-77
2023/01/04 07:44:13;;;;;;;261.97;129.57;;;;;;;;;;4410636;32;320286;-79
2023/01/04 07:46:41;;;;;;;298.80;147.97;;;;;;;;;;4402837;32;320438;-79
2023/01/04 07:49:12;;;;;;;328.47;162.07;;;;;;;;;;4412198;32;320354;-78
2023/01/04 07:51:39;;;;;;;344.70;161.90;;;;;;;;;;4402652;32;320178;-77
2023/01/04 07:54:06;;;;;;;302.77;152.87;;;;;;;;;;4412765;32;320407;-79
2023/01/04 07:56:33;;;;;;;263.70;138.20;;;;;;;;;;4401531;32;331694;-78
2023/01/04 07:59:00;;;;;;;229.80;127.33;;;;;;;;;;4412588;32;320143;-82
2023/01/04 08:01:28;;;;;;;238.83;124.97;;;;;;;;;;4403095;32;320161;-78
2023/01/04 08:03:55;;;;;;;236.97;128.20;;;;;;;;;;4413131;32;320740;-78
2023/01/04 08:06:23;;;;;;;226.67;117.00;;;;;;;;;;4402897;32;320248;-82
2023/01/04 08:08:50;;;;;;;201.57;109.07;;;;;;;;;;4411320;32;320368;-80
2023/01/04 08:11:21;;;;;;;162.87;93.33;;;;;;;;;;4412895;32;320640;-77
2023/01/04 08:13:48;;;;;;;141.93;77.63;;;;;;;;;;4399244;32;418068;-82
2023/01/04 08:16:20;;;;;;;110.50;68.83;;;;;;;;;;4412718;32;319795;-78
2023/01/04 08:18:47;;;;;;;111.87;65.13;;;;;;;;;;4398556;32;418658;-78
2023/01/04 08:21:14;;;;;;;119.87;70.50;;;;;;;;;;4411773;32;319295;-81
2023/01/04 08:23:42;;;;;;;116.60;72.27;;;;;;;;;;4401478;32;319513;-82
2023/01/04 08:26:12;;;;;;;123.97;72.80;;;;;;;;;;4414826;32;319231;-79
2023/01/04 08:28:39;;;;;;;135.48;73.90;;;;;;;;;;4401147;32;337753;-79
2023/01/04 08:31:08;;;;;;;138.70;81.93;;;;;;;;;;4412735;32;319278;-80
2023/01/04 08:33:37;;;;;;;147.03;83.40;;;;;;;;;;4402445;32;319135;-80
2023/01/04 08:36:08;;;;;;;132.70;79.67;;;;;;;;;;4409361;32;319272;-79
2023/01/04 08:38:35;;;;;;;136.47;83.73;;;;;;;;;;4387669;32;319348;-78
2023/01/04 08:41:03;;;;;;;131.17;85.67;;;;;;;;;;4403379;32;319133;-83
2023/01/04 08:43:30;;;;;;;136.33;85.70;;;;;;;;;;4402148;32;319275;-80
2023/01/04 08:45:57;;;;;;;162.13;101.20;;;;;;;;;;4412335;32;319734;-81
2023/01/04 08:48:24;;;;;;;158.27;97.97;;;;;;;;;;4401839;32;320892;-79
2023/01/04 08:50:50;;;;;;;163.33;104.00;;;;;;;;;;4411684;32;319629;-78
2023/01/04 08:53:17;;;;;;;169.63;104.33;;;;;;;;;;4412335;32;319722;-79
2023/01/04 08:55:50;;;;;;;173.17;108.30;;;;;;;;;;4401002;32;320510;-79
2023/01/04 08:58:18;;;;;;;178.23;112.60;;;;;;;;;;4411969;32;319776;-79
2023/01/04 09:00:47;;;;;;;180.53;110.97;;;;;;;;;;4399275;32;419711;-79
2023/01/04 09:03:14;;;;;;;231.57;127.27;;;;;;;;;;4411422;32;320695;-81
2023/01/04 09:05:41;;;;;;;244.50;144.13;;;;;;;;;;4402280;32;320694;-79
2023/01/04 09:08:08;;;;;;;248.30;145.37;;;;;;;;;;4411376;32;319508;-78
2023/01/04 09:10:37;;;;;;;258.70;153.50;;;;;;;;;;4401083;32;320238;-77
2023/01/04 09:13:04;;;;;;;230.03;135.20;;;;;;;;;;4411850;32;320375;-79
2023/01/04 09:15:33;;;;;;;220.67;134.87;;;;;;;;;;4402182;32;320997;-79
2023/01/04 09:18:00;;;;;;;238.30;143.63;;;;;;;;;;4411542;32;320161;-78
2023/01/04 09:20:27;;;;;;;241.87;152.90;;;;;;;;;;4401088;32;320600;-79
2023/01/04 09:22:54;;;;;;;240.67;145.77;;;;;;;;;;4412444;32;320205;-79
2023/01/04 09:25:21;;;;;;;216.87;134.67;;;;;;;;;;4401117;32;320659;-78
2023/01/04 09:27:47;;;;;;;208.60;131.47;;;;;;;;;;4412040;32;320243;-80
2023/01/04 09:30:14;;;;;;;215.73;130.23;;;;;;;;;;4416490;32;320149;-82
2023/01/04 09:32:42;;;;;;;205.37;126.07;;;;;;;;;;4410906;32;319997;-79
2023/01/04 09:35:11;;;;;;;196.00;121.03;;;;;;;;;;4415768;32;319965;-79
2023/01/04 09:37:37;;;;;;;184.53;117.57;;;;;;;;;;4400737;32;320575;-77
2023/01/04 09:40:06;;;;;;;205.80;120.77;;;;;;;;;;4406437;32;337193;-81
2023/01/04 09:42:36;;;;;;;184.63;114.07;;;;;;;;;;4403288;32;320692;-78
2023/01/04 09:45:15;;;;;;;197.47;120.13;;;;;;;;;;4414336;32;320924;-78
2023/01/04 09:47:47;;;;;;;176.03;110.83;;;;;;;;;;4405649;32;320492;-79
2023/01/04 09:50:16;;;;;;;197.03;112.90;;;;;;;;;;4414571;32;320186;-78
2023/01/04 09:52:51;;;;;;;189.77;121.20;;;;;;;;;;4405821;32;320394;-79
2023/01/04 09:55:21;;;;;;;188.03;119.90;;;;;;;;;;4415495;32;320456;-79
2023/01/04 09:57:53;;;;;;;187.07;119.43;;;;;;;;;;4400524;32;421420;-78
2023/01/04 10:00:25;;;;;;;205.37;130.53;;;;;;;;;;4404847;32;320405;-83
2023/01/04 10:02:58;;;;;;;233.03;139.67;;;;;;;;;;4414818;32;323170;-80
2023/01/04 10:05:28;;;;;;;235.80;144.87;;;;;;;;;;4403265;32;337717;-80
2023/01/04 10:07:55;;;;;;;237.70;143.77;;;;;;;;;;4414823;32;320563;-80
2023/01/04 10:10:39;;;;;;;225.50;143.33;;;;;;;;;;4405020;32;320218;-80
2023/01/04 10:13:14;;;;;;;229.83;143.60;;;;;;;;;;4413254;32;320461;-80
2023/01/04 10:15:52;;;;;;;238.17;151.00;;;;;;;;;;4404933;32;319621;-78
2023/01/04 10:18:31;;;;;;;258.13;150.63;;;;;;;;;;4413594;32;320395;-81
2023/01/04 10:21:19;;;;;;;229.00;145.47;;;;;;;;;;4401135;32;422322;-79
2023/01/04 10:24:02;;;;;;;240.77;152.07;;;;;;;;;;4400800;32;392546;-81
2023/01/04 10:26:34;;;;;;;243.53;151.30;;;;;;;;;;4403250;32;320820;-78
2023/01/04 10:29:15;;;;;;;249.77;155.40;;;;;;;;;;4413934;32;320456;-81
2023/01/04 10:31:47;;;;;;;288.43;172.87;;;;;;;;;;4409043;32;320589;-78
2023/01/04 10:34:25;;;;;;;344.53;194.47;;;;;;;;;;4413109;32;319691;-78
2023/01/04 10:36:58;;;;;;;285.27;171.23;;;;;;;;;;4400383;32;422286;-78
2023/01/04 10:39:29;;;;;;;273.30;161.60;;;;;;;;;;4403375;32;320488;-77
2023/01/04 10:41:58;;;;;;;250.20;157.37;;;;;;;;;;4412774;32;320775;-81
2023/01/04 10:44:33;;;;;;;252.53;159.43;;;;;;;;;;4401321;32;360716;-80
2023/01/04 10:47:08;;;;;;;248.03;149.60;;;;;;;;;;4412929;32;328419;-78
2023/01/04 10:49:42;;;;;;;246.17;154.97;;;;;;;;;;4402867;32;320619;-82
2023/01/04 10:52:16;;;;;;;242.97;150.30;;;;;;;;;;4412776;32;361657;-79
2023/01/04 10:54:49;;;;;;;253.70;155.20;;;;;;;;;;4403870;32;319738;-78
2023/01/04 10:57:24;;;;;;;252.67;156.67;;;;;;;;;;4413418;32;320387;-82
2023/01/04 10:59:56;;;;;;;259.03;156.70;;;;;;;;;;4399498;32;420063;-78
2023/01/04 11:02:30;;;;;;;319.90;181.67;;;;;;;;;;4403726;32;320397;-79
2023/01/04 11:05:04;;;;;;;263.70;155.87;;;;;;;;;;4414027;32;320554;-81
2023/01/04 11:07:37;;;;;;;219.73;132.90;;;;;;;;;;4403824;32;320444;-81
2023/01/04 11:10:12;;;;;;;216.90;125.40;;;;;;;;;;4413954;32;320472;-78
2023/01/04 11:12:39;;;;;;;190.63;115.03;;;;;;;;;;4403342;32;321730;-78
2023/01/04 11:15:07;;;;;;;185.87;106.53;;;;;;;;;;4412526;32;321443;-82
2023/01/04 11:17:34;;;;;;;255.53;137.07;;;;;;;;;;4402668;32;321380;-80
2023/01/04 11:20:03;;;;;;;393.23;190.77;;;;;;;;;;4413911;32;321184;-80
2023/01/04 11:22:36;;;;;;;185.40;110.80;;;;;;;;;;4402718;32;321388;-78
2023/01/04 11:25:07;;;;;;;178.30;108.03;;;;;;;;;;4412964;32;320863;-80
2023/01/04 11:27:41;;;;;;;177.00;104.87;;;;;;;;;;4403813;32;321421;-81
2023/01/04 11:30:18;;;;;;;179.13;110.83;;;;;;;;;;4413838;32;321452;-79
2023/01/04 11:32:50;;;;;;;173.33;107.80;;;;;;;;;;4400423;32;420617;-78
2023/01/04 11:35:39;;;;;;;179.00;107.13;;;;;;;;;;4414440;32;320720;-78
2023/01/04 11:38:13;;;;;;;207.23;126.53;;;;;;;;;;4386202;32;421980;-79
2023/01/04 11:40:40;;;;;;;212.07;126.53;;;;;;;;;;4390845;32;321500;-78
2023/01/04 11:43:17;;;;;;;189.47;116.03;;;;;;;;;;4412820;32;320985;-78
2023/01/04 11:46:07;;;;;;;184.27;112.10;;;;;;;;;;4403336;32;321500;-79
2023/01/04 11:48:37;;;;;;;156.17;103.97;;;;;;;;;;4402356;32;321644;-80
2023/01/04 11:51:15;;;;;;;166.77;102.17;;;;;;;;;;4412668;32;321601;-80
2023/01/04 11:53:42;;;;;;;174.10;98.30;;;;;;;;;;4402427;32;321847;-77
2023/01/04 11:56:16;;;;;;;132.60;85.83;;;;;;;;;;4412436;32;323406;-79
2023/01/04 11:59:02;;;;;;;137.87;88.50;;;;;;;;;;4404862;32;320399;-79
2023/01/04 12:01:29;;;;;;;96.27;64.00;;;;;;;;;;4401825;32;320394;-81
2023/01/04 12:03:56;;;;;;;74.70;48.73;;;;;;;;;;4412137;32;318926;-79
2023/01/04 12:06:33;;;;;;;75.20;46.93;;;;;;;;;;4401762;32;319364;-81
2023/01/04 12:09:00;;;;;;;69.00;41.30;;;;;;;;;;4413091;32;318646;-79
2023/01/04 12:11:30;;;;;;;58.23;35.33;;;;;;;;;;4402323;32;319457;-79
2023/01/04 12:13:59;;;;;;;70.60;42.80;;;;;;;;;;4412539;32;319307;-80
2023/01/04 12:16:42;;;;;;;99.70;59.87;;;;;;;;;;4401353;32;319704;-80
2023/01/04 12:19:13;;;;;;;51.47;32.27;;;;;;;;;;4412610;32;319280;-84
2023/01/04 12:21:45;;;;;;;79.27;47.73;;;;;;;;;;4402833;32;319329;-78
2023/01/04 12:24:18;;;;;;;79.23;42.17;;;;;;;;;;4413042;32;319759;-80
2023/01/04 12:26:47;;;;;;;31.23;20.83;;;;;;;;;;4399045;32;418673;-78
2023/01/04 12:29:44;;;;;;;279.13;170.03;;;;;;;;;;4412846;32;319390;-79
2023/01/04 12:32:41;;;;;;;78.83;43.40;;;;;;;;;;4400080;32;421968;-81
2023/01/04 12:35:41;;;;;;;24.17;18.13;;;;;;;;;;4398575;32;420693;-82
2023/01/04 12:38:10;;;;;;;24.63;16.97;;;;;;;;;;4398539;32;421107;-78
2023/01/04 12:40:55;;;;;;;20.97;13.97;;;;;;;;;;4402660;32;318874;-79
2023/01/04 12:43:26;;;;;;;24.10;16.60;;;;;;;;;;4400003;32;351711;-80
2023/01/04 12:49:46;;;;;;;39.70;25.53;;;;;;;;;;4410554;32;389802;-79
2023/01/04 12:52:35;;;;;;;32.43;20.47;;;;;;;;;;4398885;32;419630;-80
2023/01/04 12:55:23;;;;;;;34.27;23.13;;;;;;;;;;4400163;32;421324;-78
2023/01/04 12:57:50;;;;;;;41.17;26.40;;;;;;;;;;4399626;32;421118;-78
2023/01/04 13:00:18;;;;;;;29.03;20.83;;;;;;;;;;4410299;32;319845;-78
2023/01/04 13:02:46;;;;;;;56.27;31.50;;;;;;;;;;4403167;32;319399;-80
2023/01/04 13:05:34;;;;;;;54.93;31.23;;;;;;;;;;4412147;32;319014;-78
2023/01/04 13:08:02;;;;;;;110.70;61.90;;;;;;;;;;4399653;32;419689;-78
2023/01/04 13:10:33;;;;;;;39.70;27.33;;;;;;;;;;4402756;32;320487;-80
2023/01/04 13:13:26;;;;;;;41.83;29.00;;;;;;;;;;4413893;32;319473;-78
2023/01/04 13:16:09;;;;;;;48.40;33.13;;;;;;;;;;4402752;32;421288;-78
2023/01/04 13:18:39;;;;;;;67.87;41.10;;;;;;;;;;4404940;32;319550;-78
2023/01/04 13:21:11;;;;;;;92.10;46.30;;;;;;;;;;4416546;32;318876;-79
2023/01/04 13:23:39;;;;;;;77.53;40.57;;;;;;;;;;4392204;32;319267;-80
2023/01/04 13:26:33;;;;;;;106.17;54.70;;;;;;;;;;4401942;32;319897;-78
2023/01/04 13:29:14;;;;;;;125.57;67.93;;;;;;;;;;4394162;32;420471;-80
2023/01/04 13:31:47;;;;;;;81.13;43.87;;;;;;;;;;4396834;32;320363;-79
2023/01/04 13:34:18;;;;;;;48.57;29.67;;;;;;;;;;4412875;32;322366;-77
2023/01/04 13:36:59;;;;;;;48.27;30.07;;;;;;;;;;4394557;32;421227;-78
2023/01/04 13:39:26;;;;;;;46.70;30.70;;;;;;;;;;4388143;32;356347;-78
2023/01/04 13:41:54;;;;;;;47.20;30.87;;;;;;;;;;4408759;32;354408;-83
2023/01/04 13:44:34;;;;;;;60.10;30.13;;;;;;;;;;4405794;32;319431;-78
2023/01/04 13:47:01;;;;;;;70.83;34.97;;;;;;;;;;4415644;32;319407;-78
2023/01/04 13:49:29;;;;;;;65.37;38.43;;;;;;;;;;4405331;32;319298;-78
2023/01/04 13:51:56;;;;;;;74.57;37.53;;;;;;;;;;4414840;32;319326;-80
2023/01/04 13:54:23;;;;;;;65.73;38.37;;;;;;;;;;4403353;32;327298;-82
2023/01/04 13:56:53;;;;;;;75.43;37.90;;;;;;;;;;4414440;32;318689;-81
2023/01/04 13:59:21;;;;;;;57.07;33.63;;;;;;;;;;4410243;32;319411;-81
2023/01/04 14:01:49;;;;;;;54.23;35.53;;;;;;;;;;4414802;32;319246;-78
2023/01/04 14:04:22;;;;;;;79.67;41.23;;;;;;;;;;4414056;32;319287;-78
2023/01/04 14:06:51;;;;;;;72.70;39.53;;;;;;;;;;4400678;32;418584;-78
2023/01/04 14:09:22;;;;;;;71.17;37.73;;;;;;;;;;4414134;32;319351;-81
2023/01/04 14:12:00;;;;;;;70.17;37.70;;;;;;;;;;4401859;32;420175;-79
2023/01/04 14:14:34;;;;;;;86.67;43.03;;;;;;;;;;4403895;32;319376;-80
2023/01/04 14:17:16;;;;;;;103.80;44.17;;;;;;;;;;4413788;32;319321;-78
2023/01/04 14:19:48;;;;;;;95.70;46.73;;;;;;;;;;4404712;32;319671;-78
2023/01/04 14:22:26;;;;;;;87.33;50.03;;;;;;;;;;4413078;32;319796;-78
2023/01/04 14:24:56;;;;;;;89.73;56.07;;;;;;;;;;4401708;32;419864;-78
2023/01/04 14:27:35;;;;;;;101.20;58.83;;;;;;;;;;4404200;32;330232;-79
2023/01/04 14:30:15;;;;;;;97.50;58.77;;;;;;;;;;4414624;32;320298;-81
2023/01/04 14:32:42;;;;;;;107.60;61.27;;;;;;;;;;4403642;32;319524;-78
2023/01/04 14:35:13;;;;;;;122.27;67.00;;;;;;;;;;4414514;32;320524;-78
2023/01/04 14:37:41;;;;;;;136.83;66.47;;;;;;;;;;4404249;32;320844;-78
2023/01/04 14:40:24;;;;;;;122.17;67.33;;;;;;;;;;4413421;32;319743;-81
2023/01/04 14:42:51;;;;;;;120.50;69.00;;;;;;;;;;4385494;32;421306;-77
2023/01/04 14:45:19;;;;;;;126.57;72.57;;;;;;;;;;4408772;32;320342;-83
2023/01/04 14:47:46;;;;;;;119.37;69.63;;;;;;;;;;4401423;32;421368;-83
2023/01/04 14:50:14;;;;;;;104.47;58.40;;;;;;;;;;4414544;32;320480;-81
2023/01/04 14:52:41;;;;;;;117.93;62.13;;;;;;;;;;4404263;32;320219;-80
2023/01/04 14:55:13;;;;;;;135.27;69.67;;;;;;;;;;4414080;32;320794;-81
2023/01/04 14:57:42;;;;;;;141.93;79.33;;;;;;;;;;4402311;32;362596;-80
2023/01/04 15:00:13;;;;;;;135.83;78.13;;;;;;;;;;4414081;32;319898;-78